Time;durP1;ratioP1;P1;durP2;ratioP2;P2;SDS_P1;SDS_P2;PMS_P1;PMS_P2;Temp;Humidity;BMP_temperature;BMP_pressure;BME280_temperature;BME280_humidity;BME280_pressure;Samples;Min_cycle;Max_cycle;Signal;HPM_P1;HPM_P2
2021/12/23 00:01:16;;;;;;;59.97;30.17;;;;;;;-3.45;100.00;101602.78;4920971;29;20503;-85
2021/12/23 00:03:50;;;;;;;60.00;30.77;;;;;;;-3.48;100.00;101592.59;4916394;29;20510;-88
2021/12/23 00:06:15;;;;;;;61.85;30.10;;;;;;;-3.57;100.00;101572.50;4916693;29;20472;-88
2021/12/23 00:09:00;;;;;;;60.15;30.75;;;;;;;-3.63;100.00;101576.50;4932993;29;20036;-87
2021/12/23 00:14:44;;;;;;;62.58;30.08;;;;;;;-3.71;100.00;101572.00;4876017;29;20040;-88
2021/12/23 00:17:39;;;;;;;61.72;31.48;;;;;;;-3.81;100.00;101555.53;4927577;29;20134;-86
2021/12/23 00:25:20;;;;;;;60.20;31.30;;;;;;;-3.82;100.00;101532.91;4935450;29;20051;-86
2021/12/23 00:27:58;;;;;;;65.05;33.60;;;;;;;-3.72;100.00;101540.72;4924901;29;20568;-86
2021/12/23 00:30:23;;;;;;;64.05;30.88;;;;;;;-3.82;100.00;101528.47;4935860;29;20059;-87
2021/12/23 00:32:50;;;;;;;66.93;32.42;;;;;;;-3.76;100.00;101532.34;4934838;29;20054;-87
2021/12/23 00:48:36;;;;;;;67.50;31.33;;;;;;;-3.43;100.00;101544.97;5220245;23;20060;-90
2021/12/23 00:54:10;;;;;;;67.60;32.40;;;;;;;-3.69;100.00;101501.16;5076604;23;20114;-87
2021/12/23 00:56:38;;;;;;;62.20;32.08;;;;;;;-3.60;100.00;101510.72;4909666;29;20115;-88
2021/12/23 00:59:07;;;;;;;66.32;33.28;;;;;;;-3.46;100.00;101526.91;4897269;29;20029;-88
2021/12/23 01:01:42;;;;;;;68.03;33.83;;;;;;;-3.62;100.00;101499.56;4923720;29;20024;-88
2021/12/23 01:04:21;;;;;;;68.25;33.83;;;;;;;-3.61;100.00;101497.78;4934719;29;20024;-88
2021/12/23 01:09:58;;;;;;;67.50;33.55;;;;;;;-3.52;100.00;101531.78;5055650;23;20976;-89
2021/12/23 01:19:20;;;;;;;64.80;32.35;;;;;;;-3.67;100.00;101507.06;4784176;29;20043;-88
2021/12/23 01:21:46;;;;;;;68.22;34.67;;;;;;;-3.56;100.00;101524.38;4783328;29;20058;-89
2021/12/23 01:24:49;;;;;;;;;;;;;;;;;;;;;
2021/12/23 01:27:46;;;;;;;66.72;32.45;;;;;;;-3.36;100.00;101527.69;4744696;30;20040;-89
2021/12/23 01:30:17;;;;;;;61.72;31.20;;;;;;;-3.48;100.00;101481.72;4749875;30;20060;-89
2021/12/23 01:32:59;;;;;;;65.88;33.97;;;;;;;-3.27;100.00;101518.91;4793527;29;20046;-87
2021/12/23 01:35:26;;;;;;;58.03;30.45;;;;;;;-3.31;100.00;101501.03;4837527;29;20034;-87
2021/12/23 01:38:38;;;;;;;64.35;32.88;;;;;;;-3.22;100.00;101500.94;4837863;29;20042;-89
2021/12/23 01:41:42;;;;;;;61.72;31.75;;;;;;;-3.42;100.00;101474.06;4870548;23;20584;-89
2021/12/23 01:47:29;;;;;;;60.45;31.73;;;;;;;-3.41;100.00;101460.00;4783063;30;20100;-89
2021/12/23 01:49:55;;;;;;;64.28;32.92;;;;;;;-3.40;100.00;101459.03;4751753;30;20054;-89
2021/12/23 01:52:39;;;;;;;;;;;;;;;;;;;;;
2021/12/23 01:56:02;;;;;;;59.75;31.10;;;;;;;-3.15;100.00;101489.88;4920012;29;20028;-89
2021/12/23 01:59:01;;;;;;;60.22;29.75;;;;;;;-3.14;100.00;101475.78;4843059;29;20064;-89
2021/12/23 02:02:00;;;;;;;64.97;32.28;;;;;;;-3.36;100.00;101441.19;4843951;29;20073;-89
2021/12/23 02:04:51;;;;;;;61.50;31.40;;;;;;;-3.21;100.00;101458.03;4836986;29;20071;-89
2021/12/23 02:13:06;;;;;;;68.20;31.50;;;;;;;-3.24;100.00;101458.34;4926269;23;20061;-89
2021/12/23 02:15:43;;;;;;;57.45;30.67;;;;;;;-3.45;100.00;101423.75;4894765;29;20293;-89
2021/12/23 02:18:30;;;;;;;62.25;31.13;;;;;;;-3.27;100.00;101456.00;4905485;29;20040;-89
2021/12/23 02:21:09;;;;;;;74.30;32.50;;;;;;;-3.47;100.00;101428.34;4905752;29;20043;-89
2021/12/23 02:23:37;;;;;;;60.00;30.98;;;;;;;-3.40;100.00;101426.75;4854939;29;20053;-89
2021/12/23 02:26:56;;;;;;;61.97;32.22;;;;;;;-3.31;100.00;101438.97;4855930;29;20038;-89
2021/12/23 02:32:50;;;;;;;61.53;31.10;;;;;;;-3.36;100.00;101438.56;4916111;23;20413;-89
2021/12/23 02:38:13;;;;;;;57.22;28.73;;;;;;;-3.65;100.00;101422.09;4865399;29;20059;-89
2021/12/23 02:40:54;;;;;;;58.50;28.65;;;;;;;-3.58;100.00;101435.44;4925055;23;20044;-89
2021/12/23 02:46:35;;;;;;;59.42;29.83;;;;;;;-3.83;100.00;101421.25;4895642;29;20559;-89
2021/12/23 02:49:19;;;;;;;56.83;29.25;;;;;;;-3.85;100.00;101434.53;4896005;29;20400;-89
2021/12/23 02:52:34;;;;;;;56.67;28.67;;;;;;;-3.84;100.00;101454.50;4928331;29;20059;-89
2021/12/23 02:55:08;;;;;;;57.65;27.65;;;;;;;-4.05;100.00;101427.75;4920550;29;20105;-89
2021/12/23 02:57:56;;;;;;;55.75;28.60;;;;;;;-4.09;100.00;101436.84;4928927;29;20104;-88
2021/12/23 03:00:37;;;;;;;;;;;;;;;;;;;;;
2021/12/23 03:03:15;;;;;;;;;;;;;;;-4.17;100.00;101412.22;4899050;29;20027;-88
2021/12/23 03:05:59;;;;;;;60.13;27.55;;;;;;;-4.31;100.00;101389.16;4898873;29;19915;-88
2021/12/23 03:17:14;;;;;;;65.03;30.80;;;;;;;-4.38;100.00;101383.69;4911254;23;20052;-88
2021/12/23 03:22:18;;;;;;;62.10;30.30;;;;;;;-4.48;100.00;101375.06;5051299;23;20052;-89
2021/12/23 03:25:40;;;;;;;66.15;31.83;;;;;;;-4.41;100.00;101394.44;4918049;29;20028;-89
2021/12/23 03:28:23;;;;;;;63.93;29.73;;;;;;;-4.69;100.00;101359.56;4908832;29;20036;-89
2021/12/23 03:30:49;;;;;;;65.53;29.25;;;;;;;-4.71;100.00;101359.72;4923142;23;20315;-88
2021/12/23 03:36:36;;;;;;;60.47;29.63;;;;;;;-4.55;100.00;101348.63;4910927;29;20086;-88
2021/12/23 03:45:39;;;;;;;63.00;29.03;;;;;;;-4.43;100.00;101355.34;4936231;29;20046;-88
2021/12/23 03:48:52;;;;;;;69.32;32.50;;;;;;;-4.41;100.00;101348.16;4921465;29;20355;-88
2021/12/23 03:51:17;;;;;;;68.63;28.88;;;;;;;-4.61;100.00;101320.47;4928537;29;20035;-88
2021/12/23 04:33:08;;;;;;;69.43;32.80;;;;;;;-3.67;100.00;101266.06;4976290;23;20491;-90
2021/12/23 04:35:47;;;;;;;77.22;35.83;;;;;;;-3.51;100.00;101309.88;4897463;29;20035;-87
2021/12/23 04:38:18;;;;;;;77.40;35.95;;;;;;;-3.73;100.00;101277.13;4902150;29;20052;-91
2021/12/23 04:40:43;;;;;;;81.47;39.27;;;;;;;-3.58;100.00;101286.09;4898925;29;20036;-88
2021/12/23 04:43:09;;;;;;;81.10;39.28;;;;;;;-3.65;100.00;101253.59;4898914;29;20413;-87
2021/12/23 04:45:43;;;;;;;83.10;39.85;;;;;;;-3.67;100.00;101251.16;4915160;29;20064;-88
2021/12/23 04:48:21;;;;;;;82.93;42.00;;;;;;;-3.69;100.00;101247.03;4916438;29;20119;-88
2021/12/23 04:50:46;;;;;;;84.07;39.00;;;;;;;-3.69;100.00;101226.09;4914854;29;20610;-88
2021/12/23 04:53:14;;;;;;;74.78;36.65;;;;;;;-3.52;100.00;101238.31;4916036;29;20103;-88
2021/12/23 04:55:40;;;;;;;77.50;37.50;;;;;;;-3.38;100.00;101255.25;4909734;29;20032;-88
2021/12/23 04:58:05;;;;;;;73.07;35.45;;;;;;;-3.46;100.00;101242.09;4897555;29;20029;-88
2021/12/23 05:00:42;;;;;;;73.47;36.33;;;;;;;-3.58;100.00;101222.41;4896412;29;20028;-88
2021/12/23 05:03:18;;;;;;;79.15;35.72;;;;;;;-3.55;100.00;101212.41;4896970;29;20029;-88
2021/12/23 05:05:44;;;;;;;76.25;36.05;;;;;;;-3.47;100.00;101203.78;4902830;29;20028;-88
2021/12/23 05:08:26;;;;;;;72.00;34.42;;;;;;;-3.28;100.00;101228.13;4915547;29;20120;-88
2021/12/23 05:10:54;;;;;;;71.38;34.10;;;;;;;-3.24;100.00;101224.22;4893918;23;20049;-88
2021/12/23 05:13:32;;;;;;;69.03;32.70;;;;;;;-3.37;100.00;101198.44;4877391;29;20025;-88
2021/12/23 05:16:01;;;;;;;73.40;34.03;;;;;;;-3.28;100.00;101205.34;4855144;29;20047;-88
2021/12/23 05:18:26;;;;;;;70.57;33.20;;;;;;;-3.15;100.00;101223.25;4895889;29;20488;-87
2021/12/23 05:20:58;;;;;;;72.47;35.20;;;;;;;-3.20;100.00;101194.91;4882963;29;20033;-88
2021/12/23 05:25:51;;;;;;;78.53;33.97;;;;;;;-3.09;100.00;101213.94;4913880;23;20048;-88
